VLG8QU LEBL-LECO
Flight info
| Callsign | VLG8QU |
|---|---|
| Flight time | N/A |
| Altitude | 31000 |
| Route | LOBAR N725 VAKIN/N0441F330 N725 SUSOS/N0377F230 N725 LOMDA |
| Aircraft | A320/M-SDFGHILORVWXY/LB1 |
Departure
| Time | N/A |
|---|---|
| Airport | Josep Tarradellas Barcelona-El Prat Airport (LEBL) |
Arrival
| Time | 2026-05-04 14:44 |
|---|---|
| Airport | A Coruña Airport (LECO) |
| Time | Latitude | Longitude | Altitude | Speed | Heading |
|---|---|---|---|---|---|
| 2026-05-04 14:44 | 43.30163 | -8.38080 | 274 ft | 0 kts | 323° |
| 2026-05-04 14:57 | 43.30162 | -8.38078 | 274 ft | 2 kts | 323° |
| 2026-05-04 14:57 | 43.30144 | -8.38061 | 274 ft | 4 kts | 325° |
| 2026-05-04 14:58 | 43.30121 | -8.38047 | 274 ft | 4 kts | 2° |
| 2026-05-04 14:58 | 43.30099 | -8.38055 | 274 ft | 1 kts | 32° |
| 2026-05-04 14:58 | 43.30098 | -8.38055 | 274 ft | 0 kts | 32° |
| 2026-05-04 15:00 | 43.30103 | -8.38051 | 274 ft | 6 kts | 32° |
| 2026-05-04 15:01 | 43.30270 | -8.37887 | 277 ft | 8 kts | 74° |
| 2026-05-04 15:01 | 43.30260 | -8.37837 | 273 ft | 7 kts | 122° |
| 2026-05-04 15:01 | 43.30227 | -8.37709 | 276 ft | 18 kts | 61° |
| 2026-05-04 15:01 | 43.30343 | -8.37614 | 271 ft | 20 kts | 31° |
| 2026-05-04 15:02 | 43.30467 | -8.37513 | 273 ft | 21 kts | 31° |
| 2026-05-04 15:02 | 43.30598 | -8.37405 | 274 ft | 22 kts | 31° |
| 2026-05-04 15:02 | 43.30732 | -8.37295 | 274 ft | 23 kts | 31° |
| 2026-05-04 15:02 | 43.30877 | -8.37181 | 275 ft | 23 kts | 18° |
| 2026-05-04 15:03 | 43.30971 | -8.37122 | 277 ft | 5 kts | 108° |
| 2026-05-04 15:03 | 43.30921 | -8.37141 | 276 ft | 22 kts | 210° |
| 2026-05-04 15:03 | 43.30523 | -8.37468 | 273 ft | 110 kts | 211° |
| 2026-05-04 15:03 | 43.29664 | -8.38176 | 403 ft | 166 kts | 211° |
| 2026-05-04 15:04 | 43.28557 | -8.39051 | 956 ft | 180 kts | 210° |
| 2026-05-04 15:04 | 43.27398 | -8.39570 | 2130 ft | 176 kts | 180° |
| 2026-05-04 15:04 | 43.26229 | -8.39047 | 2696 ft | 189 kts | 144° |
| 2026-05-04 15:04 | 43.25450 | -8.37494 | 2993 ft | 214 kts | 104° |
| 2026-05-04 15:05 | 43.25583 | -8.35444 | 3454 ft | 223 kts | 60° |
| 2026-05-04 15:05 | 43.26649 | -8.33937 | 4130 ft | 222 kts | 30° |
| 2026-05-04 15:05 | 43.27955 | -8.32788 | 4869 ft | 225 kts | 29° |
| 2026-05-04 15:05 | 43.29288 | -8.31650 | 5609 ft | 227 kts | 29° |
| 2026-05-04 15:06 | 43.30638 | -8.30501 | 6326 ft | 229 kts | 30° |
| 2026-05-04 15:06 | 43.32003 | -8.29338 | 7035 ft | 232 kts | 30° |
| 2026-05-04 15:06 | 43.33368 | -8.28127 | 7718 ft | 237 kts | 37° |
| 2026-05-04 15:07 | 43.34915 | -8.24091 | 8980 ft | 248 kts | 75° |
| 2026-05-04 15:07 | 43.35391 | -8.21756 | 9426 ft | 265 kts | 75° |
| 2026-05-04 15:07 | 43.35907 | -8.19209 | 9720 ft | 288 kts | 75° |
| 2026-05-04 15:07 | 43.36330 | -8.16440 | 10197 ft | 302 kts | 86° |
| 2026-05-04 15:08 | 43.36302 | -8.13477 | 10714 ft | 315 kts | 99° |
| 2026-05-04 15:08 | 43.35798 | -8.10447 | 10946 ft | 336 kts | 107° |
| 2026-05-04 15:08 | 43.35186 | -8.07287 | 11496 ft | 346 kts | 107° |
| 2026-05-04 15:08 | 43.34568 | -8.04080 | 12208 ft | 350 kts | 106° |
| 2026-05-04 15:09 | 43.33948 | -8.00843 | 12960 ft | 353 kts | 106° |
| 2026-05-04 15:09 | 43.33322 | -7.97567 | 13625 ft | 357 kts | 107° |
| 2026-05-04 15:09 | 43.32688 | -7.94250 | 14302 ft | 359 kts | 107° |
| 2026-05-04 15:10 | 43.31401 | -7.87540 | 15591 ft | 366 kts | 107° |
| 2026-05-04 15:10 | 43.30749 | -7.84155 | 16200 ft | 370 kts | 107° |
| 2026-05-04 15:10 | 43.29417 | -7.77263 | 17357 ft | 377 kts | 107° |
| 2026-05-04 15:11 | 43.28740 | -7.73769 | 17932 ft | 380 kts | 107° |
| 2026-05-04 15:11 | 43.28055 | -7.70246 | 18495 ft | 384 kts | 107° |
| 2026-05-04 15:11 | 43.27363 | -7.66694 | 19043 ft | 387 kts | 108° |
| 2026-05-04 15:11 | 43.26665 | -7.63111 | 19583 ft | 390 kts | 108° |
| 2026-05-04 15:12 | 43.25962 | -7.59499 | 20113 ft | 393 kts | 108° |
| 2026-05-04 15:12 | 43.25252 | -7.55850 | 20644 ft | 397 kts | 108° |
| 2026-05-04 15:12 | 43.24535 | -7.52182 | 21149 ft | 400 kts | 108° |
| 2026-05-04 15:12 | 43.23812 | -7.48496 | 21660 ft | 403 kts | 108° |
| 2026-05-04 15:13 | 43.23075 | -7.44761 | 22149 ft | 407 kts | 108° |
| 2026-05-04 15:13 | 43.22333 | -7.41013 | 22629 ft | 410 kts | 108° |
| 2026-05-04 15:13 | 43.21791 | -7.37149 | 23098 ft | 417 kts | 99° |
| 2026-05-04 15:13 | 43.21727 | -7.33150 | 23529 ft | 424 kts | 88° |
| 2026-05-04 15:14 | 43.22145 | -7.29124 | 23963 ft | 429 kts | 82° |
| 2026-05-04 15:14 | 43.22678 | -7.25084 | 24391 ft | 432 kts | 82° |
| 2026-05-04 15:14 | 43.23204 | -7.21015 | 24801 ft | 435 kts | 82° |
| 2026-05-04 15:14 | 43.23726 | -7.16914 | 25174 ft | 438 kts | 82° |
| 2026-05-04 15:15 | 43.24245 | -7.12785 | 25558 ft | 441 kts | 82° |
| 2026-05-04 15:15 | 43.24765 | -7.08628 | 25928 ft | 444 kts | 82° |
| 2026-05-04 15:15 | 43.25289 | -7.04442 | 26278 ft | 446 kts | 82° |
| 2026-05-04 15:16 | 43.26341 | -6.95995 | 26962 ft | 452 kts | 82° |
| 2026-05-04 15:16 | 43.26871 | -6.91739 | 27302 ft | 454 kts | 82° |
| 2026-05-04 15:16 | 43.27943 | -6.83153 | 27943 ft | 459 kts | 82° |
| 2026-05-04 15:17 | 43.28478 | -6.78839 | 28265 ft | 461 kts | 82° |
| 2026-05-04 15:17 | 43.29550 | -6.70108 | 28875 ft | 466 kts | 83° |
| 2026-05-04 15:17 | 43.29904 | -6.67208 | 29069 ft | 467 kts | 83° |
| 2026-05-04 15:18 | 43.30441 | -6.62798 | 29354 ft | 470 kts | 83° |
| 2026-05-04 15:18 | 43.30980 | -6.58368 | 29622 ft | 471 kts | 83° |
| 2026-05-04 15:18 | 43.31519 | -6.53917 | 29875 ft | 474 kts | 83° |
| 2026-05-04 15:19 | 43.32606 | -6.44894 | 30403 ft | 477 kts | 83° |
| 2026-05-04 15:19 | 43.33140 | -6.40448 | 30649 ft | 479 kts | 83° |
| 2026-05-04 15:19 | 43.34224 | -6.31390 | 31123 ft | 482 kts | 83° |
| 2026-05-04 15:20 | 43.34764 | -6.26841 | 31334 ft | 483 kts | 83° |
| 2026-05-04 15:20 | 43.35311 | -6.22231 | 31616 ft | 482 kts | 83° |
| 2026-05-04 15:20 | 43.35849 | -6.17689 | 31904 ft | 482 kts | 83° |
| 2026-05-04 15:20 | 43.36385 | -6.13153 | 32010 ft | 478 kts | 83° |
| 2026-05-04 15:21 | 43.36902 | -6.08767 | 32027 ft | 465 kts | 83° |
| 2026-05-04 15:21 | 43.37419 | -6.04349 | 32026 ft | 460 kts | 83° |
| 2026-05-04 15:22 | 43.38917 | -5.91367 | 32026 ft | 457 kts | 83° |
| 2026-05-04 15:22 | 43.40396 | -5.78432 | 32026 ft | 457 kts | 83° |
| 2026-05-04 15:23 | 43.41381 | -5.69808 | 32024 ft | 456 kts | 83° |
| 2026-05-04 15:23 | 43.42357 | -5.61184 | 32017 ft | 456 kts | 83° |
| 2026-05-04 15:24 | 43.43761 | -5.48571 | 32006 ft | 455 kts | 83° |
| 2026-05-04 15:25 | 43.44722 | -5.39960 | 32001 ft | 455 kts | 83° |
| 2026-05-04 15:26 | 43.46149 | -5.27040 | 31996 ft | 455 kts | 84° |
| 2026-05-04 15:26 | 43.47556 | -5.14120 | 31997 ft | 455 kts | 84° |
| 2026-05-04 15:27 | 43.48935 | -5.01295 | 31997 ft | 455 kts | 84° |
| 2026-05-04 15:28 | 43.50255 | -4.88373 | 31991 ft | 453 kts | 89° |
| 2026-05-04 15:29 | 43.49795 | -4.75468 | 31998 ft | 449 kts | 97° |
| 2026-05-04 15:30 | 43.48192 | -4.45460 | 32007 ft | 448 kts | 97° |
| 2026-05-04 15:31 | 43.47583 | -4.32630 | 32012 ft | 448 kts | 96° |
| 2026-05-04 15:32 | 43.46301 | -4.11329 | 32014 ft | 446 kts | 98° |
| 2026-05-04 15:34 | 43.44933 | -3.90123 | 32010 ft | 443 kts | 102° |
| 2026-05-04 15:34 | 43.43149 | -3.77684 | 32009 ft | 441 kts | 105° |
| 2026-05-04 15:35 | 43.41311 | -3.65269 | 32008 ft | 441 kts | 105° |
| 2026-05-04 15:36 | 43.39461 | -3.52869 | 32007 ft | 442 kts | 105° |
| 2026-05-04 15:36 | 43.38229 | -3.44596 | 32007 ft | 442 kts | 105° |
| 2026-05-04 15:37 | 43.36980 | -3.36333 | 32008 ft | 442 kts | 105° |
| 2026-05-04 15:37 | 43.35729 | -3.28071 | 32009 ft | 442 kts | 105° |
| 2026-05-04 15:38 | 43.34505 | -3.19795 | 32010 ft | 442 kts | 105° |
| 2026-05-04 15:38 | 43.33280 | -3.11519 | 32008 ft | 442 kts | 105° |
| 2026-05-04 15:39 | 43.32043 | -3.03258 | 32011 ft | 442 kts | 106° |
| 2026-05-04 15:40 | 43.29632 | -2.91150 | 32010 ft | 432 kts | 121° |
| 2026-05-04 15:40 | 43.26548 | -2.84160 | 32010 ft | 427 kts | 127° |
| 2026-05-04 15:41 | 43.23368 | -2.77273 | 32010 ft | 428 kts | 127° |
| 2026-05-04 15:41 | 43.20194 | -2.70379 | 32011 ft | 427 kts | 127° |
| 2026-05-04 15:42 | 43.17013 | -2.63507 | 32012 ft | 427 kts | 127° |
| 2026-05-04 15:42 | 43.13824 | -2.56649 | 32012 ft | 426 kts | 128° |
| 2026-05-04 15:43 | 43.10635 | -2.49812 | 32010 ft | 426 kts | 128° |
| 2026-05-04 15:43 | 43.07444 | -2.42986 | 32005 ft | 426 kts | 128° |
| 2026-05-04 15:44 | 43.04256 | -2.36166 | 31999 ft | 425 kts | 128° |
| 2026-05-04 15:44 | 43.01064 | -2.29360 | 31989 ft | 425 kts | 128° |
| 2026-05-04 15:45 | 42.97866 | -2.22569 | 31990 ft | 425 kts | 128° |
| 2026-05-04 15:45 | 42.94685 | -2.15755 | 31988 ft | 426 kts | 128° |
| 2026-05-04 15:46 | 42.91515 | -2.08915 | 31984 ft | 426 kts | 128° |
| 2026-05-04 15:46 | 42.88341 | -2.02095 | 31980 ft | 426 kts | 128° |
| 2026-05-04 15:47 | 42.85153 | -1.95294 | 31978 ft | 426 kts | 128° |
| 2026-05-04 15:47 | 42.81968 | -1.88507 | 31980 ft | 425 kts | 128° |
| 2026-05-04 15:48 | 42.78787 | -1.81710 | 31974 ft | 425 kts | 128° |
| 2026-05-04 15:48 | 42.74012 | -1.71551 | 31968 ft | 425 kts | 128° |
| 2026-05-04 15:49 | 42.71312 | -1.64325 | 31962 ft | 430 kts | 121° |
| 2026-05-04 15:49 | 42.68734 | -1.56977 | 31959 ft | 431 kts | 121° |
| 2026-05-04 15:50 | 42.66148 | -1.49626 | 31956 ft | 431 kts | 121° |
| 2026-05-04 15:50 | 42.63555 | -1.42289 | 31958 ft | 431 kts | 122° |
| 2026-05-04 15:51 | 42.60941 | -1.34909 | 31957 ft | 431 kts | 122° |
| 2026-05-04 15:51 | 42.58344 | -1.27584 | 31955 ft | 431 kts | 122° |
| 2026-05-04 15:52 | 42.55740 | -1.20265 | 31954 ft | 430 kts | 122° |
| 2026-05-04 15:52 | 42.53133 | -1.12964 | 31951 ft | 430 kts | 122° |
| 2026-05-04 15:53 | 42.50553 | -1.05757 | 31950 ft | 431 kts | 122° |
| 2026-05-04 15:53 | 42.47948 | -0.98499 | 31949 ft | 430 kts | 122° |
| 2026-05-04 15:54 | 42.45358 | -0.91265 | 31947 ft | 430 kts | 122° |
| 2026-05-04 15:54 | 42.42744 | -0.83990 | 31949 ft | 430 kts | 122° |
| 2026-05-04 15:55 | 42.40117 | -0.76714 | 31949 ft | 430 kts | 122° |
| 2026-05-04 15:55 | 42.37930 | -0.70673 | 31955 ft | 430 kts | 122° |
| 2026-05-04 15:56 | 42.35290 | -0.63418 | 31957 ft | 430 kts | 122° |
| 2026-05-04 15:56 | 42.32651 | -0.56172 | 31961 ft | 430 kts | 122° |
| 2026-05-04 15:57 | 42.30008 | -0.48926 | 31963 ft | 430 kts | 122° |
| 2026-05-04 15:57 | 42.27366 | -0.41689 | 31962 ft | 429 kts | 122° |
| 2026-05-04 15:58 | 42.24718 | -0.34464 | 31963 ft | 429 kts | 122° |
| 2026-05-04 15:58 | 42.22062 | -0.27248 | 31960 ft | 429 kts | 122° |
| 2026-05-04 15:59 | 42.19410 | -0.20056 | 31959 ft | 428 kts | 122° |
| 2026-05-04 15:59 | 42.16753 | -0.12870 | 31958 ft | 428 kts | 122° |
| 2026-05-04 16:00 | 42.14097 | -0.05683 | 31957 ft | 428 kts | 122° |
| 2026-05-04 16:00 | 42.11433 | 0.01491 | 31956 ft | 428 kts | 122° |
| 2026-05-04 16:01 | 42.08763 | 0.08658 | 31936 ft | 429 kts | 125° |
| 2026-05-04 16:01 | 42.06034 | 0.15933 | 31955 ft | 444 kts | 126° |
| 2026-05-04 16:02 | 42.03205 | 0.23463 | 31563 ft | 452 kts | 125° |
| 2026-05-04 16:02 | 42.00421 | 0.30941 | 29553 ft | 440 kts | 125° |
| 2026-05-04 16:03 | 41.99057 | 0.34588 | 28624 ft | 434 kts | 126° |
| 2026-05-04 16:03 | 41.97775 | 0.38246 | 27816 ft | 431 kts | 118° |
| 2026-05-04 16:03 | 41.96825 | 0.42004 | 27331 ft | 418 kts | 117° |
| 2026-05-04 16:03 | 41.95905 | 0.45658 | 26700 ft | 408 kts | 117° |
| 2026-05-04 16:04 | 41.94985 | 0.49238 | 26445 ft | 405 kts | 117° |
| 2026-05-04 16:04 | 41.93127 | 0.56344 | 25931 ft | 402 kts | 118° |
| 2026-05-04 16:04 | 41.92203 | 0.59876 | 25557 ft | 400 kts | 117° |
| 2026-05-04 16:05 | 41.91284 | 0.63395 | 25181 ft | 400 kts | 117° |
| 2026-05-04 16:05 | 41.90373 | 0.66906 | 24800 ft | 397 kts | 117° |
| 2026-05-04 16:05 | 41.88577 | 0.73857 | 24058 ft | 392 kts | 117° |
| 2026-05-04 16:06 | 41.87687 | 0.77304 | 23692 ft | 390 kts | 117° |
| 2026-05-04 16:06 | 41.85323 | 0.86413 | 22718 ft | 384 kts | 116° |
| 2026-05-04 16:07 | 41.84156 | 0.90876 | 22251 ft | 381 kts | 116° |
| 2026-05-04 16:07 | 41.81543 | 1.00859 | 21183 ft | 375 kts | 116° |
| 2026-05-04 16:08 | 41.80676 | 1.04153 | 20832 ft | 373 kts | 116° |